Latest Weather Observations for Hamilton Island

IDQ60801

Issued at 4:05 am EST Thursday 24 July 2014 (issued every 30 minutes, with the page automatically refreshed every 10 minutes)

About weather observations | Map of weather stations | Latest weather observations for QLD | Other Formats
Station Details ID: 033106 Name: HAMILTON ISLAND AIRPORT Lat: -20.37 Lon: 148.95 Height: 58.66 m
Data from the previous 72 hours. | See also: Recent months at Hamilton Island
Date/Time
EST
Temp
°C
App
Temp
°C
Dew
Point
Rel
Hum
%
Delta-T
°C
Wind Press
QNH
hPa
Press
MSL
hPa
Rain
since 9 am
mm
Dir
 
Spd
km/h
Gust
km/h
Spd
kts
Gust
kts
24/04:03am 18.9 17.4 17.6 92 0.8 SSE 22 30 12 16 1017.6 - 4.8
24/04:00am 18.9 17.7 17.6 92 0.8 SSE 20 26 11 14 1017.6 - 4.8
24/03:30am 18.9 16.3 16.9 88 1.2 SE 26 32 14 17 1017.9 - 4.8
24/03:27am 19.1 16.6 17.2 89 1.2 SE 26 32 14 17 1017.9 - 4.8
24/03:00am 18.6 15.8 17.4 93 0.7 SSE 28 35 15 19 1018.2 1018.1 4.6
24/02:45am 18.5 16.5 17.3 93 0.7 S 24 30 13 16 1018.3 - 4.6
24/02:30am 19.0 17.0 17.3 90 1.0 S 24 30 13 16 1018.2 - 3.2
24/02:00am 19.9 18.1 16.9 83 1.8 SE 22 28 12 15 1018.5 - 3.2
24/01:30am 19.9 17.8 16.3 80 2.2 SE 22 28 12 15 1018.6 - 3.2
24/01:00am 19.8 17.9 16.6 82 1.9 SE 22 26 12 14 1018.7 - 3.2
24/12:30am 19.6 17.5 16.3 81 2.0 SE 22 26 12 14 1018.8 - 3.2
24/12:00am 19.6 17.2 16.4 82 1.9 SE 24 28 13 15 1019.0 1018.9 3.2
 
Date/Time
EST
Temp
°C
App
Temp
°C
Dew
Point
Rel
Hum
%
Delta-T
°C
Wind Press
QNH
hPa
Press
MSL
hPa
Rain
since 9 am
mm
Dir
 
Spd
km/h
Gust
km/h
Spd
kts
Gust
kts
23/11:30pm 19.6 17.2 16.3 81 2.0 ESE 24 30 13 16 1019.0 - 3.2
23/11:00pm 19.6 16.3 16.1 80 2.1 ESE 28 32 15 17 1019.4 - 3.2
23/10:33pm 19.6 16.0 16.3 81 2.0 SE 30 35 16 19 1019.5 - 3.2
23/10:30pm 19.4 16.5 17.0 86 1.5 SE 28 33 15 18 1019.5 - 3.2
23/10:00pm 19.3 15.2 17.4 89 1.2 SE 35 41 19 22 1019.4 - 3.2
23/09:59pm 19.2 15.1 17.3 89 1.2 SE 35 41 19 22 1019.4 - 3.2
23/09:45pm 18.9 17.8 17.7 93 0.7 SSE 20 28 11 15 1019.7 - 3.2
23/09:30pm 19.9 16.1 16.7 82 1.9 SSE 32 39 17 21 1019.5 - 0.0
23/09:07pm 19.8 16.1 17.0 84 1.7 SSE 32 37 17 20 1019.4 - 0.0
23/09:00pm 19.9 16.2 16.9 83 1.8 SSE 32 37 17 20 1019.4 1019.2 0.0
23/08:30pm 19.6 16.5 16.6 83 1.8 SE 28 32 15 17 1019.5 - 0.0
23/08:00pm 19.6 16.5 16.6 83 1.8 SE 28 32 15 17 1019.4 - 0.0
23/07:38pm 19.6 16.9 16.6 83 1.8 SE 26 32 14 17 1019.1 - 0.0
23/07:30pm 19.6 17.1 17.2 86 1.5 SE 26 30 14 16 1019.1 - 0.0
23/07:00pm 19.5 16.5 16.9 85 1.6 SE 28 32 15 17 1018.7 - 0.0
23/06:30pm 19.4 15.9 16.6 84 1.7 SE 30 35 16 19 1018.4 - 0.0
23/06:05pm 19.3 15.5 16.7 85 1.6 SE 32 37 17 20 1018.0 - 0.0
23/06:00pm 19.2 15.7 16.6 85 1.6 SE 30 37 16 20 1017.9 1017.8 0.0
23/05:30pm 19.4 15.6 16.6 84 1.7 SE 32 35 17 19 1017.5 - 0.0
23/05:00pm 19.6 15.4 16.1 80 2.1 SE 33 39 18 21 1017.2 - 0.0
23/04:30pm 19.9 15.3 16.0 78 2.3 SE 35 39 19 21 1017.0 - 0.0
23/04:00pm 19.8 15.5 15.9 78 2.3 SE 33 37 18 20 1016.9 - 0.0
23/03:30pm 20.3 16.1 16.3 78 2.4 SSE 33 39 18 21 1016.9 - 0.0
23/03:00pm 20.4 16.1 16.0 76 2.6 SSE 33 39 18 21 1017.0 1016.9 0.0
23/02:30pm 20.3 16.3 16.7 80 2.2 SSE 33 37 18 20 1017.1 - 0.0
23/02:00pm 20.4 16.5 16.4 78 2.4 SSE 32 35 17 19 1017.3 - 0.0
23/01:30pm 20.2 16.0 16.2 78 2.4 SSE 33 37 18 20 1017.6 - 0.0
23/01:00pm 20.6 16.6 16.6 78 2.4 SSE 33 37 18 20 1017.9 - 0.0
23/12:30pm 20.7 16.6 16.5 77 2.5 SSE 33 37 18 20 1018.2 - 0.0
23/12:00pm 20.5 16.5 16.3 77 2.5 SSE 32 37 17 20 1018.8 1018.7 0.0
23/11:30am 20.2 16.0 15.8 76 2.6 SSE 32 37 17 20 1019.1 - 0.0
23/11:00am 20.3 16.1 16.1 77 2.5 SSE 33 37 18 20 1019.5 - 0.0
23/10:30am 20.2 17.6 15.8 76 2.6 SSE 24 32 13 17 1020.0 - 0.0
23/10:00am 20.0 16.9 15.6 76 2.6 SSE 26 32 14 17 1020.3 - 0.0
23/09:30am 20.0 17.1 15.2 74 2.8 SSE 24 30 13 16 1020.5 - 0.0
23/09:00am 19.6 16.6 14.8 74 2.8 SSE 24 32 13 17 1020.5 1020.3 0.0
23/08:30am 19.6 16.9 14.6 73 2.9 SSE 22 30 12 16 1020.2 - 0.0
23/08:00am 19.4 17.2 14.9 75 2.6 S 20 28 11 15 1020.0 - 0.0
23/07:30am 18.7 16.5 14.8 78 2.3 S 20 28 11 15 1019.7 - 0.0
23/07:00am 18.1 15.4 14.6 80 2.0 S 22 28 12 15 1019.4 - 0.0
23/06:30am 17.7 14.6 14.4 81 1.9 S 24 28 13 15 1019.0 - 0.0
23/06:00am 17.8 15.4 14.5 81 1.9 S 20 26 11 14 1018.6 1018.5 0.0
23/05:30am 17.7 15.4 14.6 82 1.8 S 20 26 11 14 1018.2 - 0.0
23/05:00am 17.6 15.5 14.7 83 1.7 S 19 24 10 13 1017.8 - 0.0
23/04:30am 17.6 15.3 14.7 83 1.7 S 20 26 11 14 1017.7 - 0.0
23/04:00am 17.5 15.2 14.6 83 1.7 S 20 24 11 13 1017.8 - 0.0
23/03:30am 17.5 15.5 15.0 85 1.5 S 19 24 10 13 1018.0 - 0.0
23/03:00am 17.8 15.8 15.4 86 1.4 S 20 26 11 14 1018.1 1018.0 0.0
23/02:30am 17.8 15.8 15.4 86 1.4 S 20 26 11 14 1018.2 - 0.0
23/02:00am 18.1 16.3 15.5 85 1.5 S 19 24 10 13 1018.2 - 0.0
23/01:30am 18.3 16.8 15.4 83 1.7 S 17 22 9 12 1018.5 - 0.0
23/01:00am 19.5 16.9 13.9 70 3.2 ESE 20 26 11 14 1018.8 - 0.0
23/12:30am 19.3 16.6 13.5 69 3.3 ESE 20 24 11 13 1018.9 - 0.0
23/12:00am 19.4 16.4 13.6 69 3.3 ESE 22 28 12 15 1019.1 1019.0 0.0
 
Date/Time
EST
Temp
°C
App
Temp
°C
Dew
Point
Rel
Hum
%
Delta-T
°C
Wind Press
QNH
hPa
Press
MSL
hPa
Rain
since 9 am
mm
Dir
 
Spd
km/h
Gust
km/h
Spd
kts
Gust
kts
22/11:30pm 19.5 15.9 13.2 67 3.6 ESE 24 28 13 15 1019.4 - 0.0
22/11:00pm 19.5 16.5 13.7 69 3.3 ESE 22 28 12 15 1019.5 - 0.0
22/10:30pm 19.5 16.5 13.7 69 3.3 ESE 22 28 12 15 1019.7 - 0.0
22/10:00pm 19.7 16.2 13.4 67 3.6 ESE 24 28 13 15 1019.7 - 0.0
22/09:30pm 19.7 16.0 12.7 64 3.9 ESE 24 28 13 15 1019.6 - 0.0
22/09:00pm 19.8 16.3 13.3 66 3.7 ESE 24 30 13 16 1019.6 1019.4 0.0
22/08:30pm 19.6 15.2 12.8 65 3.8 ESE 28 32 15 17 1019.4 - 0.0
22/08:00pm 19.4 15.8 12.9 66 3.7 ESE 24 30 13 16 1019.1 - 0.0
22/07:30pm 19.5 15.7 12.3 63 4.0 ESE 24 30 13 16 1019.0 - 0.0
22/07:00pm 19.4 15.5 13.3 68 3.5 ESE 26 30 14 16 1018.7 - 0.0
22/06:30pm 19.4 15.0 12.9 66 3.7 ESE 28 33 15 18 1018.4 - 0.0
22/06:00pm 19.4 14.9 12.7 65 3.8 ESE 28 33 15 18 1017.9 1017.8 0.0
22/05:30pm 19.3 14.9 13.0 67 3.6 ESE 28 32 15 17 1017.6 - 0.0
22/05:00pm 19.5 15.3 12.3 63 4.0 ESE 26 30 14 16 1017.6 - 0.0
22/04:30pm 19.4 15.3 13.8 70 3.2 E 28 32 15 17 1017.4 - 0.0
22/04:00pm 19.7 15.9 13.6 68 3.5 ESE 26 28 14 15 1017.2 - 0.0
22/03:30pm 20.2 16.8 12.4 61 4.4 ESE 22 28 12 15 1017.2 - 0.0
22/03:00pm 20.6 17.5 12.1 58 4.8 SE 20 24 11 13 1017.2 1017.1 0.0
22/02:30pm 20.3 17.2 13.3 64 4.0 SSE 22 26 12 14 1017.5 - 0.0
22/02:00pm 20.2 16.6 12.9 63 4.1 SSE 24 28 13 15 1017.7 - 0.0
22/01:30pm 20.0 17.1 14.1 69 3.4 SSE 22 26 12 14 1018.1 - 0.0
22/01:00pm 19.8 16.3 13.5 67 3.6 SSE 24 28 13 15 1018.4 - 0.0
22/12:30pm 19.8 16.3 13.3 66 3.7 SSE 24 28 13 15 1018.9 - 0.0
22/12:00pm 20.0 17.1 15.0 73 2.9 SSE 24 28 13 15 1019.6 1019.4 0.0
22/11:30am 19.7 16.8 15.1 75 2.7 SSE 24 28 13 15 1020.2 - 0.0
22/11:00am 20.0 17.3 14.6 71 3.2 SSE 22 26 12 14 1020.7 - 0.0
22/10:30am 20.0 16.9 14.6 71 3.2 SSE 24 26 13 14 1020.9 - 0.0
22/10:00am 20.3 17.8 15.1 72 3.1 SSE 22 26 12 14 1021.1 - 0.0
22/09:30am 20.0 17.8 14.4 70 3.3 SSE 19 24 10 13 1021.1 - 0.0
22/09:00am 19.7 19.7 15.1 75 2.7 S 9 13 5 7 1021.1 1020.9 0.0
22/08:30am 18.5 18.3 14.8 79 2.2 SW 9 15 5 8 1021.0 - 0.0
22/08:00am 18.0 17.8 14.7 81 1.9 SW 9 13 5 7 1020.8 - 0.0
22/07:30am 17.6 17.4 14.7 83 1.7 WSW 9 11 5 6 1020.6 - 0.0
22/07:00am 17.6 17.9 15.0 85 1.5 SW 7 11 4 6 1020.5 - 0.0
22/06:30am 17.4 17.7 15.0 86 1.4 SW 7 13 4 7 1020.3 - 0.0
22/06:00am 17.4 16.9 15.0 86 1.4 S 11 15 6 8 1019.8 1019.6 0.0
22/05:30am 17.4 17.8 15.2 87 1.3 SSW 7 11 4 6 1019.7 - 0.0
22/05:00am 17.4 17.8 15.2 87 1.3 SSW 7 13 4 7 1019.5 - 0.0
22/04:30am 17.4 16.9 14.9 85 1.5 S 11 15 6 8 1019.2 - 0.0
22/04:00am 17.5 17.1 15.3 87 1.3 S 11 17 6 9 1019.0 - 0.0
22/03:30am 17.3 16.4 14.9 86 1.4 S 13 17 7 9 1019.1 - 0.0
22/03:00am 17.4 15.2 15.0 86 1.4 S 20 22 11 12 1019.4 1019.2 0.0
22/02:30am 17.4 15.5 15.2 87 1.3 S 19 22 10 12 1019.6 - 0.0
22/02:00am 17.5 15.6 15.3 87 1.3 S 19 20 10 11 1019.7 - 0.0
22/01:30am 17.7 16.3 15.5 87 1.3 S 17 20 9 11 1020.0 - 0.0
22/01:00am 18.4 17.0 15.6 84 1.7 SSE 17 20 9 11 1020.2 - 0.0
22/12:30am 18.5 16.6 15.2 81 1.9 SSE 19 22 10 12 1020.4 - 0.0
22/12:00am 18.4 16.5 15.3 82 1.8 SSE 19 22 10 12 1020.6 1020.4 0.0
 
Date/Time
EST
Temp
°C
App
Temp
°C
Dew
Point
Rel
Hum
%
Delta-T
°C
Wind Press
QNH
hPa
Press
MSL
hPa
Rain
since 9 am
mm
Dir
 
Spd
km/h
Gust
km/h
Spd
kts
Gust
kts
21/11:30pm 18.5 16.7 15.4 82 1.8 SE 19 24 10 13 1020.8 - 0.0
21/11:00pm 18.4 16.5 15.1 81 1.9 SE 19 22 10 12 1020.9 - 0.0
21/10:30pm 18.2 16.6 15.1 82 1.8 SE 17 20 9 11 1021.2 - 0.0
21/10:00pm 18.2 16.6 14.9 81 1.9 SE 17 20 9 11 1021.4 - 0.0
21/09:30pm 18.1 16.0 14.6 80 2.0 ESE 19 20 10 11 1021.3 - 0.0
21/09:00pm 18.2 16.1 14.7 80 2.0 SE 19 20 10 11 1021.5 1021.3 0.0
21/08:30pm 18.2 16.1 14.7 80 2.0 SE 19 20 10 11 1021.3 - 0.0
21/08:00pm 18.2 16.3 14.3 78 2.2 SE 17 20 9 11 1021.1 - 0.0
21/07:30pm 17.8 16.3 14.3 80 2.0 SE 15 19 8 10 1020.7 - 0.0
21/07:00pm 18.0 16.1 14.3 79 2.1 SE 17 19 9 10 1020.2 - 0.0
21/06:30pm 18.0 15.5 14.1 78 2.2 SE 20 22 11 12 1019.9 - 0.0
21/06:00pm 18.2 15.6 13.7 75 2.6 SSE 20 22 11 12 1019.6 1019.4 0.0
21/05:30pm 18.2 16.1 13.5 74 2.7 SSE 17 20 9 11 1019.5 - 0.0
21/05:00pm 18.4 16.7 13.5 73 2.8 SSE 15 19 8 10 1019.4 - 0.0
21/04:30pm 18.6 16.4 13.2 71 3.1 S 17 20 9 11 1019.0 - 0.0
21/04:00pm 18.7 16.4 13.1 70 3.2 S 17 20 9 11 1018.9 - 0.0
21/03:30pm 19.0 16.9 12.5 66 3.6 S 15 22 8 12 1018.9 - 0.0
21/03:00pm 19.0 16.2 12.5 66 3.6 SSE 19 24 10 13 1018.9 1018.8 0.0
21/02:30pm 19.0 16.1 12.3 65 3.7 SSE 19 24 10 13 1018.9 - 0.0
21/02:00pm 19.3 16.5 12.6 65 3.8 SSE 19 24 10 13 1019.0 - 0.0
21/01:30pm 18.9 15.8 12.2 65 3.7 SSE 20 26 11 14 1019.4 - 0.0
21/01:00pm 19.4 16.2 11.9 62 4.2 SSE 20 26 11 14 1019.7 - 0.0
21/12:30pm 19.8 16.7 12.3 62 4.2 SSE 20 26 11 14 1020.2 - 0.0
21/12:00pm 19.5 16.5 11.8 61 4.3 SSE 19 26 10 14 1020.7 1020.5 0.0
21/11:30am 19.0 15.8 11.3 61 4.2 SSE 19 24 10 13 1021.2 - 0.0
21/11:00am 19.1 15.7 11.2 60 4.3 SSE 20 30 11 16 1021.5 - 0.0
21/10:30am 19.0 15.6 11.3 61 4.2 SSE 20 30 11 16 1021.7 - 0.0
21/10:00am 18.3 14.4 10.7 61 4.1 SSE 22 30 12 16 1021.8 - 0.0
21/09:30am 18.0 14.1 10.9 63 3.8 SSE 22 30 12 16 1021.9 - 0.0
21/09:00am 18.3 15.1 11.4 64 3.8 SSE 19 30 10 16 1021.9 1021.7 0.0
21/08:30am 17.6 14.1 10.9 65 3.6 S 20 26 11 14 1021.7 - 0.0
21/08:00am 17.1 14.0 11.6 70 3.0 S 19 24 10 13 1021.6 - 0.0
21/07:30am 16.5 12.9 10.6 68 3.1 S 20 32 11 17 1021.3 - 0.0
21/07:00am 16.2 12.6 10.7 70 2.9 S 20 26 11 14 1021.1 - 0.0
21/06:30am 16.1 12.5 10.6 70 2.9 SSE 20 28 11 15 1020.8 - 0.0
21/06:00am 16.0 12.3 10.3 69 3.0 S 20 26 11 14 1020.4 1020.2 0.0
21/05:30am 16.2 12.6 10.7 70 2.9 SSE 20 30 11 16 1020.1 - 0.0
21/05:00am 16.2 12.6 10.7 70 2.9 S 20 28 11 15 1019.7 - 0.0
21/04:30am 16.0 12.3 10.3 69 3.0 S 20 28 11 15 1019.8 - 0.0

Other Formats:

Comma delimited format used in spreadsheet applications
http://www.bom.gov.au/fwo/IDQ60801/IDQ60801.94368.axf

JavaScript Object Notation format (JSON) in row-major order
http://www.bom.gov.au/fwo/IDQ60801/IDQ60801.94368.json